Time;durP1;ratioP1;P1;durP2;ratioP2;P2;SDS_P1;SDS_P2;PMS_P1;PMS_P2;Temp;Humidity;BMP_temperature;BMP_pressure;BME280_temperature;BME280_humidity;BME280_pressure;Samples;Min_cycle;Max_cycle;Signal;HPM_P1;HPM_P2
2021/10/11 00:01:49;;;;;;;52.95;38.55;;;10.80;99.90;;;;;;5075272;28;20226;-82
2021/10/11 00:04:17;;;;;;;53.50;39.22;;;10.90;99.90;;;;;;5076119;28;20213;-83
2021/10/11 00:06:45;;;;;;;61.33;40.47;;;10.90;99.90;;;;;;5082685;28;20210;-83
2021/10/11 00:09:12;;;;;;;61.67;39.45;;;11.00;99.90;;;;;;5083748;28;20578;-82
2021/10/11 00:11:39;;;;;;;54.72;40.47;;;11.10;99.90;;;;;;5072441;28;20354;-82
2021/10/11 00:14:06;;;;;;;69.70;45.55;;;11.10;99.90;;;;;;5075907;28;20287;-82
2021/10/11 00:16:35;;;;;;;73.75;49.75;;;11.20;99.90;;;;;;5077528;28;20313;-82
2021/10/11 00:19:02;;;;;;;84.85;52.47;;;11.20;99.90;;;;;;5076347;28;20220;-82
2021/10/11 00:21:29;;;;;;;75.97;49.22;;;11.20;99.90;;;;;;5071319;28;20610;-82
2021/10/11 00:23:56;;;;;;;86.85;53.70;;;11.20;99.90;;;;;;5081791;28;20210;-82
2021/10/11 00:26:33;;;;;;;90.13;56.83;;;11.20;99.90;;;;;;5077709;28;20316;-82
2021/10/11 00:29:00;;;;;;;78.70;56.10;;;11.10;99.90;;;;;;5082947;28;20228;-83
2021/10/11 00:31:27;;;;;;;79.75;53.20;;;11.10;99.90;;;;;;5087333;28;20203;-82
2021/10/11 00:33:56;;;;;;;85.10;54.45;;;11.10;99.90;;;;;;5082503;28;20242;-83
2021/10/11 00:36:23;;;;;;;85.20;57.58;;;11.10;99.90;;;;;;5082371;28;20199;-83
2021/10/11 00:38:50;;;;;;;69.82;51.88;;;11.20;99.90;;;;;;5096816;28;20226;-83
2021/10/11 00:41:17;;;;;;;81.10;52.53;;;11.20;99.90;;;;;;5080532;28;20228;-83
2021/10/11 00:43:50;;;;;;;89.93;58.65;;;11.20;99.90;;;;;;5071982;28;20207;-83
2021/10/11 00:46:19;;;;;;;90.65;58.65;;;11.20;99.90;;;;;;5083816;28;20225;-82
2021/10/11 00:48:59;;;;;;;80.05;55.28;;;11.20;99.90;;;;;;5075258;28;20223;-83
2021/10/11 00:51:28;;;;;;;97.45;60.42;;;11.20;99.90;;;;;;5077485;28;20199;-83
2021/10/11 00:53:55;;;;;;;77.30;53.75;;;11.20;99.90;;;;;;5088357;28;20196;-83
2021/10/11 00:56:22;;;;;;;110.85;64.88;;;11.10;99.90;;;;;;5089259;28;20212;-83
2021/10/11 02:27:45;;;;;;;88.65;52.80;;;12.00;99.90;;;;;;4864611;29;20206;-83
2021/10/11 02:30:25;;;;;;;75.95;47.08;;;12.00;99.90;;;;;;4875305;29;20659;-83
2021/10/11 02:33:42;;;;;;;102.90;56.28;;;12.00;99.90;;;;;;4907970;29;20678;-83
2021/10/11 03:51:14;;;;;;;58.78;33.40;;;12.00;99.90;;;;;;5113793;28;20241;-83
2021/10/11 03:53:43;;;;;;;45.65;30.45;;;12.00;99.90;;;;;;5113182;27;20276;-83
2021/10/11 03:56:10;;;;;;;59.10;32.25;;;12.00;99.90;;;;;;5123921;27;20200;-83
2021/10/11 03:58:37;;;;;;;54.63;31.02;;;12.10;99.90;;;;;;5119164;27;20221;-83
2021/10/11 04:01:04;;;;;;;47.00;28.58;;;12.10;99.90;;;;;;5121018;27;20230;-83
2021/10/11 04:03:32;;;;;;;49.13;29.13;;;12.10;99.90;;;;;;5124082;27;20272;-83
2021/10/11 04:05:59;;;;;;;43.60;25.10;;;12.10;99.90;;;;;;5120908;28;20222;-83
2021/10/11 04:08:33;;;;;;;52.55;26.08;;;12.10;99.90;;;;;;5118347;27;20345;-83
2021/10/11 04:11:10;;;;;;;36.38;25.60;;;12.20;99.90;;;;;;5114102;27;20214;-83
2021/10/11 04:13:37;;;;;;;36.85;22.45;;;12.20;99.90;;;;;;5118609;27;20240;-83
2021/10/11 04:16:06;;;;;;;33.72;22.25;;;12.20;99.90;;;;;;5117949;27;20561;-83
2021/10/11 04:18:33;;;;;;;44.15;22.35;;;12.30;99.90;;;;;;5118666;27;20228;-83
2021/10/11 04:21:00;;;;;;;37.85;23.75;;;12.30;99.90;;;;;;5130665;27;20224;-83
2021/10/11 04:23:27;;;;;;;27.30;18.92;;;12.30;99.90;;;;;;5139374;27;20206;-83
2021/10/11 04:25:55;;;;;;;35.08;20.85;;;12.40;99.90;;;;;;5127483;27;20205;-84
2021/10/11 04:28:24;;;;;;;27.92;17.58;;;12.40;99.90;;;;;;5133949;27;20242;-82
2021/10/11 04:30:51;;;;;;;27.70;18.02;;;12.40;99.90;;;;;;5137709;28;20191;-83
2021/10/11 04:33:21;;;;;;;27.60;18.10;;;12.40;99.90;;;;;;5140098;27;20189;-82
2021/10/11 04:35:48;;;;;;;27.70;16.15;;;12.50;99.90;;;;;;5148215;27;20202;-83
2021/10/11 04:38:15;;;;;;;26.02;15.15;;;12.50;99.90;;;;;;5139335;28;20263;-83
2021/10/11 04:40:42;;;;;;;29.48;15.85;;;12.50;99.90;;;;;;5128022;28;20263;-83
2021/10/11 04:43:09;;;;;;;30.55;15.30;;;12.50;99.90;;;;;;5138887;28;20199;-83
2021/10/11 04:45:38;;;;;;;42.53;16.45;;;12.40;99.90;;;;;;5137718;28;20191;-82
2021/10/11 04:48:07;;;;;;;21.60;14.75;;;12.50;99.90;;;;;;5133390;28;20276;-82
2021/10/11 04:50:35;;;;;;;18.85;13.15;;;12.50;99.90;;;;;;5129434;27;20226;-83
2021/10/11 04:53:03;;;;;;;21.05;12.13;;;12.50;99.90;;;;;;5124247;27;20605;-83
2021/10/11 04:55:31;;;;;;;25.98;13.52;;;12.50;99.90;;;;;;5124752;27;20192;-83
2021/10/11 04:58:00;;;;;;;24.83;13.25;;;12.50;99.90;;;;;;5128763;27;20263;-83
2021/10/11 05:00:28;;;;;;;17.08;10.82;;;12.50;99.90;;;;;;5120253;27;20236;-83
2021/10/11 05:02:56;;;;;;;25.73;12.00;;;12.40;99.90;;;;;;5133327;27;20606;-83
2021/10/11 05:05:23;;;;;;;20.38;10.20;;;12.40;99.90;;;;;;5138023;28;20248;-82
2021/10/11 05:07:51;;;;;;;12.88;8.90;;;12.40;99.90;;;;;;5138816;28;20191;-82
2021/10/11 05:10:18;;;;;;;15.05;9.68;;;12.40;99.90;;;;;;5146459;27;20230;-82
2021/10/11 05:12:45;;;;;;;17.20;9.57;;;12.40;99.90;;;;;;5159684;27;20172;-83
2021/10/11 05:15:12;;;;;;;17.55;10.30;;;12.30;99.90;;;;;;5138936;28;20190;-82
2021/10/11 05:17:40;;;;;;;28.65;10.48;;;12.20;99.90;;;;;;5136670;28;20241;-83
2021/10/11 05:20:10;;;;;;;18.52;10.23;;;12.20;99.90;;;;;;5137043;28;20219;-83
2021/10/11 05:22:37;;;;;;;16.25;10.18;;;12.20;99.90;;;;;;5151195;27;20203;-84
2021/10/11 05:25:06;;;;;;;21.95;10.02;;;12.20;99.90;;;;;;5131458;28;20273;-83
2021/10/11 05:27:33;;;;;;;19.58;10.18;;;12.20;99.90;;;;;;5136576;27;20216;-84
2021/10/11 05:30:00;;;;;;;15.07;9.63;;;12.10;99.90;;;;;;5128921;28;20225;-83
2021/10/11 05:32:29;;;;;;;25.38;10.50;;;12.10;99.90;;;;;;5121506;28;20213;-84
2021/10/11 05:34:58;;;;;;;19.05;8.38;;;12.10;99.90;;;;;;5114421;28;20209;-84
2021/10/11 05:37:27;;;;;;;14.57;8.45;;;12.10;99.90;;;;;;5133095;28;20230;-83
2021/10/11 05:39:54;;;;;;;25.13;10.07;;;12.10;99.90;;;;;;5126960;28;20232;-83
2021/10/11 05:42:23;;;;;;;30.23;12.50;;;12.10;99.90;;;;;;5128070;28;20227;-83
2021/10/11 05:44:50;;;;;;;15.32;8.30;;;12.10;99.90;;;;;;5124964;28;20212;-83
2021/10/11 05:47:17;;;;;;;16.27;10.23;;;12.10;99.90;;;;;;5134017;28;20666;-83
2021/10/11 05:49:45;;;;;;;14.05;9.45;;;12.00;99.90;;;;;;5136218;28;20222;-82
2021/10/11 05:52:12;;;;;;;18.17;10.38;;;11.90;99.90;;;;;;5133386;28;20456;-83
2021/10/11 05:54:41;;;;;;;14.07;10.85;;;11.90;99.90;;;;;;5133858;27;20211;-82
2021/10/11 05:57:08;;;;;;;17.42;8.73;;;11.90;99.90;;;;;;5137308;27;20211;-83
2021/10/11 05:59:35;;;;;;;20.80;10.27;;;11.90;99.90;;;;;;5142697;27;20244;-83
2021/10/11 06:02:03;;;;;;;22.25;9.48;;;11.80;99.90;;;;;;5137404;27;20279;-82
2021/10/11 06:04:30;;;;;;;15.90;8.27;;;11.80;99.90;;;;;;5123823;27;20228;-83
2021/10/11 06:06:57;;;;;;;12.88;7.82;;;11.90;99.90;;;;;;5127062;27;20260;-84
2021/10/11 06:09:24;;;;;;;17.98;7.82;;;12.00;99.90;;;;;;5126219;27;20224;-81
2021/10/11 06:11:53;;;;;;;20.77;9.02;;;12.00;99.90;;;;;;5132896;27;20290;-83
2021/10/11 06:14:20;;;;;;;13.43;7.30;;;12.10;99.90;;;;;;5128010;28;20209;-84
2021/10/11 06:16:47;;;;;;;18.17;7.50;;;12.10;99.90;;;;;;5136307;27;20195;-84
2021/10/11 06:19:15;;;;;;;13.82;6.40;;;12.20;99.90;;;;;;5134632;27;20660;-83
2021/10/11 06:21:42;;;;;;;16.45;7.03;;;12.20;99.90;;;;;;5110347;28;20216;-83
2021/10/11 06:24:11;;;;;;;12.45;6.88;;;12.30;99.90;;;;;;5130713;27;20202;-84
2021/10/11 06:26:39;;;;;;;15.55;6.10;;;12.30;99.90;;;;;;5127263;27;20190;-84
2021/10/11 06:29:08;;;;;;;12.45;6.00;;;12.40;99.90;;;;;;5128944;28;20221;-84
2021/10/11 06:31:35;;;;;;;14.73;5.63;;;12.40;99.90;;;;;;5124892;28;20207;-83
2021/10/11 06:34:02;;;;;;;10.00;5.05;;;12.50;99.90;;;;;;5127514;27;20637;-83
2021/10/11 06:36:34;;;;;;;16.52;5.00;;;12.50;99.90;;;;;;5128626;27;20203;-84
2021/10/11 06:39:01;;;;;;;18.13;3.95;;;12.50;99.90;;;;;;5123238;27;20232;-84
2021/10/11 06:41:28;;;;;;;6.45;4.10;;;12.40;99.90;;;;;;5118098;27;20286;-84
2021/10/11 06:43:55;;;;;;;12.93;5.15;;;12.60;99.90;;;;;;5119065;27;20580;-83
2021/10/11 06:46:24;;;;;;;13.15;5.20;;;12.60;99.90;;;;;;5124570;28;20226;-84
2021/10/11 06:48:52;;;;;;;12.60;4.40;;;12.70;99.90;;;;;;5128196;27;20232;-83
2021/10/11 06:51:19;;;;;;;6.38;3.92;;;12.80;99.90;;;;;;5132073;27;20201;-83
2021/10/11 06:53:47;;;;;;;13.25;4.47;;;12.80;99.90;;;;;;5117846;28;20221;-83
2021/10/11 06:56:14;;;;;;;8.20;3.60;;;13.00;99.90;;;;;;5141915;27;20207;-84
2021/10/11 06:58:41;;;;;;;9.38;4.00;;;13.10;99.90;;;;;;5134251;27;20216;-83
2021/10/11 07:01:08;;;;;;;7.63;3.88;;;13.20;99.90;;;;;;5136747;27;20193;-84
2021/10/11 07:03:38;;;;;;;9.95;4.03;;;13.40;99.90;;;;;;5126823;27;20236;-84
2021/10/11 07:06:12;;;;;;;8.32;4.32;;;13.50;99.90;;;;;;5117852;28;20197;-83
2021/10/11 07:08:39;;;;;;;10.38;4.22;;;13.70;99.90;;;;;;5119736;28;20239;-83
2021/10/11 07:11:08;;;;;;;5.05;3.33;;;13.70;99.90;;;;;;5124583;27;20205;-83
2021/10/11 07:13:35;;;;;;;14.85;4.10;;;13.70;99.90;;;;;;5124169;27;20261;-84
2021/10/11 07:16:04;;;;;;;8.73;4.05;;;13.80;99.90;;;;;;5126950;27;20313;-83
2021/10/11 07:18:33;;;;;;;10.25;4.10;;;13.80;99.90;;;;;;5117992;27;20242;-84
2021/10/11 07:21:01;;;;;;;8.38;4.15;;;13.80;99.90;;;;;;5116233;28;20260;-83
2021/10/11 07:23:29;;;;;;;10.43;3.10;;;14.00;99.90;;;;;;5107355;28;20222;-83
2021/10/11 07:26:00;;;;;;;13.27;3.10;;;14.80;99.90;;;;;;5118576;28;20208;-84
2021/10/11 07:28:27;;;;;;;11.48;3.30;;;15.80;99.90;;;;;;5118816;27;20238;-83
2021/10/11 07:30:55;;;;;;;8.90;3.10;;;16.60;99.90;;;;;;5131453;27;20698;-83
2021/10/11 07:33:23;;;;;;;15.40;5.40;;;17.60;99.90;;;;;;5123759;27;20432;-82
2021/10/11 07:35:50;;;;;;;11.40;3.00;;;18.70;99.90;;;;;;5115685;28;20462;-83
2021/10/11 07:38:20;;;;;;;10.57;3.37;;;19.50;99.90;;;;;;5134038;27;20474;-83
2021/10/11 07:40:47;;;;;;;11.13;2.90;;;20.50;99.90;;;;;;5114729;27;20545;-83
2021/10/11 07:43:15;;;;;;;6.23;2.60;;;21.00;99.80;;;;;;5128161;28;20500;-84
2021/10/11 07:45:47;;;;;;;12.70;3.47;;;21.20;98.40;;;;;;5118503;27;20447;-83
2021/10/11 07:48:15;;;;;;;14.60;4.10;;;21.50;97.80;;;;;;5116110;27;20501;-84
2021/10/11 07:53:46;;;;;;;8.50;3.07;;;21.70;95.30;;;;;;5118638;27;20467;-84
2021/10/11 07:56:14;;;;;;;5.57;2.40;;;22.20;95.60;;;;;;5116439;27;20645;-83
2021/10/11 07:58:43;;;;;;;7.30;3.00;;;22.40;94.60;;;;;;5126076;27;20501;-84
2021/10/11 08:01:12;;;;;;;5.30;2.70;;;22.90;94.00;;;;;;5129681;27;20443;-83
2021/10/11 08:03:40;;;;;;;4.80;2.80;;;23.10;93.20;;;;;;5120133;27;20499;-83
2021/10/11 08:06:07;;;;;;;6.37;3.50;;;23.50;92.70;;;;;;5122917;28;20741;-84
2021/10/11 08:08:35;;;;;;;9.40;2.70;;;23.40;92.20;;;;;;5125557;27;20459;-84
2021/10/11 08:11:04;;;;;;;5.90;2.60;;;23.50;92.10;;;;;;5127667;27;20450;-83
2021/10/11 08:13:32;;;;;;;6.30;2.60;;;23.60;91.70;;;;;;5122069;28;20530;-83
2021/10/11 08:16:01;;;;;;;7.00;3.47;;;23.60;91.60;;;;;;5131023;27;20467;-84
2021/10/11 08:18:28;;;;;;;8.80;2.80;;;24.00;90.90;;;;;;5123678;27;20501;-83
2021/10/11 08:20:55;;;;;;;10.23;3.03;;;24.20;90.30;;;;;;5120035;27;20828;-83
2021/10/11 08:23:23;;;;;;;12.33;2.77;;;24.40;90.40;;;;;;5132343;27;20482;-84
2021/10/11 08:25:50;;;;;;;8.90;3.30;;;24.40;90.10;;;;;;5137723;27;20452;-83
2021/10/11 08:28:18;;;;;;;7.67;3.10;;;24.60;89.90;;;;;;5131735;27;20463;-83
2021/10/11 08:30:46;;;;;;;9.70;2.87;;;24.70;88.70;;;;;;5128936;28;20420;-83
2021/10/11 08:33:13;;;;;;;5.97;2.30;;;25.00;87.50;;;;;;5131640;28;20442;-83
2021/10/11 08:35:44;;;;;;;5.50;3.10;;;25.10;87.30;;;;;;5131810;27;20445;-83
2021/10/11 08:38:12;;;;;;;12.73;3.10;;;25.00;86.30;;;;;;5126963;27;20455;-83
2021/10/11 08:40:39;;;;;;;10.60;2.40;;;24.70;86.90;;;;;;5132444;27;20442;-83
2021/10/11 08:43:06;;;;;;;7.50;2.70;;;24.70;86.50;;;;;;5139904;27;20886;-84
2021/10/11 08:45:34;;;;;;;8.30;2.40;;;25.10;86.60;;;;;;5136501;28;20495;-82
2021/10/11 08:48:02;;;;;;;10.07;3.10;;;25.30;84.60;;;;;;5145166;27;20407;-83
2021/10/11 08:50:29;;;;;;;8.80;3.40;;;25.30;84.50;;;;;;5138071;28;20446;-82
2021/10/11 08:52:56;;;;;;;9.00;3.40;;;25.60;83.10;;;;;;5138274;28;20473;-84
2021/10/11 08:55:23;;;;;;;9.97;2.60;;;25.80;82.10;;;;;;5116398;28;20515;-83
2021/10/11 08:58:01;;;;;;;9.60;2.80;;;25.60;81.30;;;;;;5126489;28;20427;-83
2021/10/11 09:00:34;;;;;;;7.10;2.53;;;25.60;81.60;;;;;;5123728;28;20447;-84
2021/10/11 09:03:02;;;;;;;10.27;2.67;;;25.70;81.50;;;;;;5134509;27;20478;-83
2021/10/11 09:05:32;;;;;;;7.33;2.30;;;25.40;81.80;;;;;;5127658;27;20452;-83
2021/10/11 09:08:07;;;;;;;8.67;2.63;;;25.20;81.70;;;;;;5134713;27;20452;-84
2021/10/11 09:10:51;;;;;;;7.53;2.27;;;25.20;82.50;;;;;;5133907;27;20438;-83
2021/10/11 09:13:18;;;;;;;8.40;2.40;;;25.40;81.50;;;;;;5119418;28;21003;-84
2021/10/11 09:15:50;;;;;;;6.63;2.70;;;25.70;81.40;;;;;;5124231;27;20446;-83
2021/10/11 09:18:28;;;;;;;29.30;11.70;;;26.00;80.40;;;;;;5127463;28;20470;-83
2021/10/11 09:20:55;;;;;;;8.90;2.60;;;26.30;80.50;;;;;;5122433;27;20456;-84
2021/10/11 09:23:23;;;;;;;9.47;2.60;;;25.70;79.50;;;;;;5126664;28;20967;-83
2021/10/11 09:25:51;;;;;;;10.03;4.13;;;24.60;80.90;;;;;;5129008;28;20451;-83
2021/10/11 09:28:20;;;;;;;9.97;2.67;;;23.70;85.10;;;;;;5129911;27;20478;-83
2021/10/11 09:30:49;;;;;;;11.07;3.00;;;23.10;85.90;;;;;;5148336;27;20457;-83
2021/10/11 09:33:18;;;;;;;6.90;2.63;;;22.50;88.00;;;;;;5127266;28;20467;-83
2021/10/11 09:35:54;;;;;;;8.13;3.23;;;21.90;90.30;;;;;;5133700;28;20432;-83
2021/10/11 09:38:23;;;;;;;4.37;2.03;;;21.00;91.20;;;;;;5130140;28;20476;-84
2021/10/11 09:40:51;;;;;;;4.20;1.80;;;20.30;92.90;;;;;;5138737;27;20444;-82
2021/10/11 09:43:21;;;;;;;7.93;2.27;;;19.70;94.40;;;;;;5136676;28;20496;-83
2021/10/11 09:45:56;;;;;;;4.43;1.90;;;18.90;96.80;;;;;;5139941;28;20443;-84
2021/10/11 09:48:24;;;;;;;10.10;2.57;;;18.60;99.10;;;;;;5136214;28;20481;-84
2021/10/11 09:50:51;;;;;;;10.57;2.43;;;18.40;99.90;;;;;;5133018;28;20891;-84
2021/10/11 09:53:19;;;;;;;9.37;2.20;;;18.20;99.60;;;;;;5132714;28;20450;-85
2021/10/11 09:55:46;;;;;;;5.70;1.83;;;18.10;99.90;;;;;;5133041;28;20436;-84
2021/10/11 09:58:15;;;;;;;10.00;2.10;;;18.10;99.90;;;;;;5133476;28;20458;-86
2021/10/11 10:00:43;;;;;;;9.70;2.40;;;17.80;99.90;;;;;;5132381;28;20440;-84
2021/10/11 10:03:12;;;;;;;5.33;2.50;;;17.60;99.90;;;;;;5134431;28;20470;-84
2021/10/11 10:05:45;;;;;;;5.27;2.20;;;17.40;99.90;;;;;;5126239;28;20519;-85
2021/10/11 10:08:16;;;;;;;4.33;2.40;;;17.20;99.90;;;;;;5125034;28;21294;-84
2021/10/11 10:10:48;;;;;;;9.30;3.23;;;17.40;99.90;;;;;;5124295;28;20473;-85
2021/10/11 10:13:17;;;;;;;7.70;1.90;;;17.80;99.90;;;;;;5119173;28;20443;-84
2021/10/11 10:15:46;;;;;;;8.40;2.50;;;17.80;99.90;;;;;;5119317;28;20459;-84
2021/10/11 10:18:17;;;;;;;8.03;2.00;;;17.60;99.90;;;;;;5128359;28;20463;-84
2021/10/11 10:20:55;;;;;;;5.67;1.80;;;17.40;99.90;;;;;;5124794;28;20439;-84
2021/10/11 10:23:27;;;;;;;5.67;1.70;;;17.10;99.90;;;;;;5128441;28;20533;-85
2021/10/11 10:25:55;;;;;;;4.60;1.35;;;17.50;99.90;;;;;;5134355;28;20441;-83
2021/10/11 10:28:24;;;;;;;4.77;1.77;;;17.60;99.90;;;;;;5141597;28;20240;-84
2021/10/11 10:31:00;;;;;;;6.90;1.90;;;17.50;99.90;;;;;;5148832;28;20453;-84
2021/10/11 10:33:37;;;;;;;4.43;1.93;;;17.60;99.90;;;;;;5137674;28;20427;-85
2021/10/11 10:36:06;;;;;;;5.37;2.00;;;17.50;99.90;;;;;;5137520;28;20453;-84
2021/10/11 10:38:33;;;;;;;3.70;2.00;;;17.70;99.90;;;;;;5140268;27;20459;-83
2021/10/11 10:41:00;;;;;;;6.60;2.30;;;18.00;99.90;;;;;;5141069;28;20439;-83
2021/10/11 10:43:39;;;;;;;3.83;1.87;;;18.20;99.90;;;;;;5141451;27;20474;-84
2021/10/11 10:46:10;;;;;;;7.07;2.43;;;18.20;99.90;;;;;;5133871;27;20443;-84
2021/10/11 10:48:48;;;;;;;6.13;2.33;;;18.20;99.90;;;;;;5143057;27;20447;-83
2021/10/11 10:51:15;;;;;;;6.63;2.17;;;18.30;99.90;;;;;;5130892;27;20434;-84
2021/10/11 10:53:53;;;;;;;5.17;1.90;;;18.60;99.90;;;;;;5131328;27;20538;-84
2021/10/11 10:56:21;;;;;;;5.83;2.77;;;18.40;99.90;;;;;;5138061;27;20443;-84
2021/10/11 10:58:49;;;;;;;7.20;1.60;;;18.50;99.90;;;;;;5133260;27;20493;-84
2021/10/11 11:01:25;;;;;;;5.10;1.50;;;18.50;99.90;;;;;;5131527;28;20523;-84
2021/10/11 11:03:54;;;;;;;9.20;2.33;;;18.60;99.90;;;;;;5123608;28;20483;-84
2021/10/11 11:06:29;;;;;;;9.50;2.43;;;18.70;99.90;;;;;;5130621;28;20438;-84
2021/10/11 11:08:58;;;;;;;6.47;1.97;;;19.00;99.90;;;;;;5138619;27;20473;-83
2021/10/11 11:11:26;;;;;;;4.80;1.97;;;18.90;99.90;;;;;;5138165;27;20440;-83
2021/10/11 11:13:56;;;;;;;4.70;1.97;;;18.60;99.10;;;;;;5132070;28;20447;-83
2021/10/11 11:16:27;;;;;;;9.60;3.37;;;18.40;99.80;;;;;;5126638;28;20471;-83
2021/10/11 11:18:57;;;;;;;6.00;1.73;;;18.40;98.80;;;;;;5143680;27;20473;-84
2021/10/11 11:21:24;;;;;;;8.47;2.00;;;18.60;99.00;;;;;;5130073;27;20432;-84
2021/10/11 11:23:51;;;;;;;4.60;1.93;;;18.80;99.30;;;;;;5127195;28;20511;-85
2021/10/11 11:26:18;;;;;;;4.83;1.70;;;18.90;99.10;;;;;;5140812;27;20516;-84
2021/10/11 11:28:47;;;;;;;4.00;1.17;;;18.80;98.90;;;;;;5128413;28;20463;-83
2021/10/11 11:31:14;;;;;;;10.50;1.80;;;18.70;98.90;;;;;;5130192;28;20451;-84
2021/10/11 11:33:48;;;;;;;4.47;1.30;;;18.80;98.70;;;;;;5131804;28;20438;-84
2021/10/11 11:36:17;;;;;;;6.23;1.77;;;18.60;98.00;;;;;;5118146;28;20455;-84
2021/10/11 11:38:45;;;;;;;6.77;1.53;;;18.40;97.80;;;;;;5128103;27;20458;-84
2021/10/11 11:41:12;;;;;;;7.67;2.60;;;18.50;98.70;;;;;;5136214;27;20454;-84
2021/10/11 11:43:41;;;;;;;3.33;0.97;;;18.40;99.10;;;;;;5127912;28;20483;-84
2021/10/11 11:46:10;;;;;;;12.13;2.47;;;18.10;99.70;;;;;;5117017;28;20466;-84
2021/10/11 11:48:40;;;;;;;6.00;2.13;;;18.20;99.90;;;;;;5128473;28;20497;-84
2021/10/11 11:51:10;;;;;;;4.97;1.80;;;18.20;99.50;;;;;;5136261;27;20438;-84
2021/10/11 11:53:41;;;;;;;9.60;2.00;;;18.30;99.40;;;;;;5120984;27;20466;-83
2021/10/11 11:56:09;;;;;;;5.87;2.00;;;18.30;99.90;;;;;;5121683;27;20442;-84
2021/10/11 11:58:38;;;;;;;4.23;1.80;;;18.20;99.90;;;;;;5128376;28;20785;-84
2021/10/11 12:01:11;;;;;;;8.73;2.67;;;17.80;99.90;;;;;;5141386;27;20430;-84
2021/10/11 12:03:44;;;;;;;5.25;1.60;;;17.50;99.90;;;;;;5131324;27;20545;-84
2021/10/11 12:06:12;;;;;;;6.33;1.30;;;17.40;99.90;;;;;;5128235;28;20559;-83
2021/10/11 12:08:43;;;;;;;5.57;1.20;;;17.30;99.90;;;;;;5131984;27;20472;-84
2021/10/11 12:11:11;;;;;;;5.43;1.38;;;17.40;99.90;;;;;;5132456;27;20450;-84
2021/10/11 12:13:40;;;;;;;3.53;1.20;;;17.50;99.90;;;;;;5122292;27;20212;-83
2021/10/11 12:16:09;;;;;;;7.63;1.90;;;17.60;99.90;;;;;;5132558;27;20453;-84
2021/10/11 12:18:38;;;;;;;4.40;1.63;;;17.60;99.90;;;;;;5122172;27;20535;-84
2021/10/11 12:21:06;;;;;;;5.73;1.60;;;17.60;99.90;;;;;;5130519;27;20463;-83
2021/10/11 12:23:38;;;;;;;7.63;2.23;;;17.50;99.90;;;;;;5141557;27;20512;-83
2021/10/11 12:26:08;;;;;;;4.47;1.27;;;17.60;99.90;;;;;;5136113;27;20443;-84
2021/10/11 12:28:35;;;;;;;6.70;2.30;;;17.70;99.90;;;;;;5115369;28;20458;-84
2021/10/11 12:31:05;;;;;;;7.80;1.80;;;17.70;99.90;;;;;;5140567;27;20987;-84
2021/10/11 12:33:39;;;;;;;7.60;1.63;;;17.70;99.90;;;;;;5134364;27;20443;-84
2021/10/11 12:36:07;;;;;;;3.33;1.67;;;17.80;99.90;;;;;;5126746;28;20582;-84
2021/10/11 12:38:36;;;;;;;4.17;1.43;;;17.80;99.90;;;;;;5126272;28;20947;-84
2021/10/11 12:41:11;;;;;;;3.47;1.23;;;17.70;99.90;;;;;;5132007;27;20439;-84
2021/10/11 12:43:38;;;;;;;5.33;3.33;;;17.70;99.90;;;;;;5139052;27;20478;-84
2021/10/11 12:46:09;;;;;;;7.40;1.77;;;17.60;99.90;;;;;;5137416;27;20494;-84
2021/10/11 12:48:36;;;;;;;7.00;1.90;;;17.50;99.90;;;;;;5138320;27;20489;-84
2021/10/11 12:51:06;;;;;;;4.07;1.83;;;17.30;99.90;;;;;;5133102;27;20451;-83
2021/10/11 12:53:33;;;;;;;6.00;1.90;;;17.10;99.90;;;;;;5127479;28;20209;-84
2021/10/11 12:56:02;;;;;;;10.13;2.10;;;17.30;99.90;;;;;;5126455;27;20456;-84
2021/10/11 12:58:30;;;;;;;3.05;1.42;;;17.40;99.40;;;;;;5131993;27;20216;-84
2021/10/11 13:00:58;;;;;;;4.40;1.43;;;17.30;99.90;;;;;;5120207;28;20197;-84
2021/10/11 13:03:25;;;;;;;2.13;1.00;;;17.30;99.90;;;;;;5134789;27;20482;-83
2021/10/11 13:05:54;;;;;;;3.10;1.50;;;17.30;99.90;;;;;;5130550;27;20467;-83
2021/10/11 13:08:21;;;;;;;4.53;1.55;;;17.20;99.60;;;;;;5127573;27;20511;-84
2021/10/11 13:10:48;;;;;;;6.00;2.07;;;17.00;99.90;;;;;;5129141;27;20204;-83
2021/10/11 13:13:16;;;;;;;8.05;1.95;;;17.10;99.90;;;;;;5158698;27;20430;-83
2021/10/11 13:15:44;;;;;;;9.68;2.75;;;17.10;99.90;;;;;;5149696;27;20194;-83
2021/10/11 13:18:12;;;;;;;10.88;2.90;;;17.10;99.90;;;;;;5137082;28;20213;-84
2021/10/11 13:20:39;;;;;;;9.40;2.60;;;16.90;99.70;;;;;;5131719;28;20228;-83
2021/10/11 13:23:06;;;;;;;9.93;2.90;;;16.90;99.60;;;;;;5132295;28;20192;-84
2021/10/11 13:25:33;;;;;;;11.00;3.45;;;16.90;99.20;;;;;;5130241;28;20564;-84
2021/10/11 13:28:02;;;;;;;10.43;3.20;;;16.70;99.50;;;;;;5129450;28;20207;-84
2021/10/11 14:28:45;;;;;;;5.40;1.45;;;16.70;99.20;;;;;;5132573;28;20210;-82
2021/10/11 14:31:21;;;;;;;6.05;2.20;;;16.50;99.80;;;;;;5143983;27;20225;-83
2021/10/11 15:59:18;;;;;;;4.97;2.22;;;15.10;99.90;;;;;;5133922;28;20212;-83
2021/10/11 16:02:04;;;;;;;16.45;1.80;;;15.10;99.90;;;;;;5140845;27;20198;-83
2021/10/11 16:04:34;;;;;;;13.02;2.30;;;15.00;99.90;;;;;;5145237;27;20208;-83
2021/10/11 16:07:04;;;;;;;7.70;2.55;;;15.00;99.90;;;;;;5142511;27;20196;-83
2021/10/11 16:09:32;;;;;;;7.90;2.75;;;14.90;99.90;;;;;;5133629;28;20206;-84
2021/10/11 16:11:59;;;;;;;6.82;2.25;;;14.90;99.90;;;;;;5137189;28;20200;-83
2021/10/11 16:14:26;;;;;;;12.07;4.03;;;14.90;99.90;;;;;;5138806;27;20207;-83
2021/10/11 16:16:55;;;;;;;7.97;2.65;;;14.80;99.90;;;;;;5136203;28;20216;-83
2021/10/11 16:19:22;;;;;;;3.05;1.90;;;14.70;99.90;;;;;;5135591;28;20218;-84
2021/10/11 16:21:50;;;;;;;14.20;6.90;;;14.70;99.90;;;;;;5132496;28;20225;-83
2021/10/11 16:24:19;;;;;;;6.90;4.03;;;14.60;99.90;;;;;;5133194;28;20236;-85
2021/10/11 16:26:47;;;;;;;18.27;8.45;;;14.50;99.90;;;;;;5122248;28;20209;-84
2021/10/11 16:29:14;;;;;;;11.30;5.30;;;14.40;99.90;;;;;;5124750;28;20221;-84
2021/10/11 16:31:43;;;;;;;40.80;27.05;;;14.30;99.90;;;;;;5122708;28;20209;-85
2021/10/11 16:34:11;;;;;;;8.93;3.83;;;14.20;99.90;;;;;;5128181;27;20237;-84
2021/10/11 16:36:38;;;;;;;6.93;2.42;;;14.10;99.90;;;;;;5126800;27;20201;-84
2021/10/11 16:39:06;;;;;;;7.28;3.20;;;14.00;99.90;;;;;;5132167;27;20304;-84
2021/10/11 16:41:33;;;;;;;12.10;4.25;;;13.90;99.90;;;;;;5131775;27;20201;-85
2021/10/11 16:44:00;;;;;;;13.60;5.40;;;13.80;99.90;;;;;;5123700;28;20217;-84
2021/10/11 16:46:27;;;;;;;10.48;2.90;;;13.70;99.90;;;;;;5123799;27;20215;-83
2021/10/11 16:48:55;;;;;;;13.93;3.55;;;13.60;99.90;;;;;;5128423;27;20224;-83
2021/10/11 16:51:23;;;;;;;7.93;3.05;;;13.50;99.90;;;;;;5127871;27;20263;-84
2021/10/11 16:56:36;;;;;;;10.95;4.18;;;13.50;99.90;;;;;;5126331;27;20206;-83
2021/10/11 16:59:05;;;;;;;14.40;5.80;;;13.40;99.90;;;;;;5132434;28;20228;-83
2021/10/11 17:01:32;;;;;;;8.55;3.05;;;13.40;99.90;;;;;;5133336;28;20233;-83
2021/10/11 17:04:02;;;;;;;9.80;3.50;;;13.30;99.90;;;;;;5131278;28;20614;-84
2021/10/11 17:06:31;;;;;;;10.48;3.50;;;13.30;99.90;;;;;;5122511;28;20198;-83
2021/10/11 17:09:00;;;;;;;5.22;3.33;;;13.30;99.90;;;;;;5133540;28;20295;-83
2021/10/11 17:11:27;;;;;;;8.90;5.15;;;13.30;99.90;;;;;;5147189;27;20235;-83
2021/10/11 17:13:57;;;;;;;8.38;3.45;;;13.30;99.90;;;;;;5133154;27;20220;-83
2021/10/11 17:16:24;;;;;;;5.78;2.42;;;13.20;99.90;;;;;;5130482;28;20212;-84
2021/10/11 17:18:51;;;;;;;8.07;2.78;;;13.20;99.90;;;;;;5132765;28;20221;-84
2021/10/11 17:21:18;;;;;;;11.38;2.45;;;13.20;99.90;;;;;;5133411;27;20215;-84
2021/10/11 17:23:47;;;;;;;8.68;2.70;;;13.10;99.90;;;;;;5138308;27;20219;-83
2021/10/11 17:26:14;;;;;;;5.53;2.53;;;13.10;99.90;;;;;;5128229;28;20217;-84
2021/10/11 17:28:43;;;;;;;7.82;1.90;;;13.00;99.90;;;;;;5131552;28;20223;-84
2021/10/11 17:31:11;;;;;;;10.13;3.40;;;12.90;99.90;;;;;;5143289;27;20203;-85
2021/10/11 17:33:38;;;;;;;8.45;3.10;;;12.90;99.90;;;;;;5124618;28;20209;-83
2021/10/11 17:36:05;;;;;;;13.75;5.40;;;12.90;99.90;;;;;;5132757;28;20201;-84
2021/10/11 17:38:33;;;;;;;7.45;3.22;;;12.90;99.90;;;;;;5133987;28;20303;-85
2021/10/11 17:41:01;;;;;;;8.02;2.85;;;12.80;99.90;;;;;;5148377;28;20207;-84
2021/10/11 17:43:29;;;;;;;12.38;3.85;;;12.80;99.90;;;;;;5138979;28;20182;-85
2021/10/11 17:45:56;;;;;;;5.30;2.55;;;12.70;99.90;;;;;;5141876;27;20223;-84
2021/10/11 17:48:23;;;;;;;6.13;3.25;;;12.70;99.90;;;;;;5143794;27;20227;-84
2021/10/11 17:50:50;;;;;;;8.57;3.47;;;12.70;99.90;;;;;;5140561;27;20214;-84
2021/10/11 17:53:17;;;;;;;11.63;3.03;;;12.60;99.90;;;;;;5136962;28;20210;-83
2021/10/11 17:55:44;;;;;;;4.63;2.70;;;12.60;99.90;;;;;;5135925;28;20263;-84
2021/10/11 17:58:14;;;;;;;6.03;2.33;;;12.60;99.90;;;;;;5143557;27;20222;-84
2021/10/11 18:00:41;;;;;;;6.00;2.53;;;12.60;99.90;;;;;;5144310;27;20229;-84
2021/10/11 18:03:08;;;;;;;6.88;2.60;;;12.50;99.90;;;;;;5145606;27;20197;-84